createdAt,value
2022-08-30T00:02:21.785Z,5.40
2022-08-30T00:07:27.793Z,5.45
2022-08-30T00:12:32.835Z,4.53
2022-08-30T00:17:35.314Z,9.02
2022-08-30T00:22:38.457Z,5.22
2022-08-30T00:27:43.722Z,5.72
2022-08-30T00:32:46.715Z,5.82
2022-08-30T00:37:50.853Z,6.38
2022-08-30T00:42:59.359Z,5.82
2022-08-30T00:48:02.645Z,6.28
2022-08-30T00:53:08.168Z,5.32
2022-08-30T00:58:19.908Z,7.45
2022-08-30T01:03:22.545Z,6.97
2022-08-30T01:08:25.072Z,5.47
2022-08-30T01:13:29.274Z,5.15
2022-08-30T01:18:32.890Z,5.43
2022-08-30T01:23:40.404Z,7.20
2022-08-30T01:28:43.519Z,4.78
2022-08-30T01:33:46.010Z,5.22
2022-08-30T01:38:52.446Z,5.40
2022-08-30T01:43:58.266Z,7.00
2022-08-30T01:49:01.458Z,7.10
2022-08-30T01:54:05.726Z,4.53
2022-08-30T01:59:08.346Z,3.58
2022-08-30T02:04:13.518Z,4.90
2022-08-30T02:09:17.393Z,7.15
2022-08-30T02:14:21.200Z,5.20
2022-08-30T02:19:23.806Z,9.80
2022-08-30T02:24:27.683Z,3.72
2022-08-30T02:29:30.216Z,6.15
2022-08-30T02:34:32.916Z,5.30
2022-08-30T02:39:36.756Z,7.85
2022-08-30T02:44:39.244Z,5.05
2022-08-30T02:49:41.920Z,3.42
2022-08-30T02:54:46.305Z,5.95
2022-08-30T02:59:51.009Z,6.90
2022-08-30T03:04:54.029Z,3.50
2022-08-30T03:09:58.378Z,5.72
2022-08-30T03:15:00.974Z,8.65
2022-08-30T03:20:04.828Z,6.47
2022-08-30T03:25:09.711Z,4.63
2022-08-30T03:30:13.702Z,7.88
2022-08-30T03:35:17.517Z,4.72
2022-08-30T03:40:23.602Z,8.63
2022-08-30T03:45:26.343Z,6.72
2022-08-30T03:50:29.118Z,5.50
2022-08-30T03:55:32.971Z,5.32
2022-08-30T04:00:35.499Z,7.30
2022-08-30T04:05:38.107Z,5.72
2022-08-30T04:10:41.930Z,6.63
2022-08-30T04:15:44.576Z,5.50
2022-08-30T04:20:47.602Z,8.05
2022-08-30T04:25:51.447Z,5.10
2022-08-30T04:30:53.999Z,6.10
2022-08-30T04:35:56.457Z,6.93
2022-08-30T04:41:00.823Z,5.65
2022-08-30T04:51:11.864Z,8.50
2022-08-30T04:56:18.093Z,6.13
2022-08-30T05:01:23.719Z,5.47
2022-08-30T05:06:28.528Z,6.72
2022-08-30T05:11:32.615Z,5.63
2022-08-30T05:16:35.281Z,6.70
2022-08-30T05:21:40.574Z,6.53
2022-08-30T05:26:45.404Z,6.45
2022-08-30T05:31:47.981Z,7.82
2022-08-30T05:36:50.781Z,7.80
2022-08-30T05:41:57.172Z,8.60
2022-08-30T05:47:00.137Z,9.20
2022-08-30T05:52:02.694Z,10.35
2022-08-30T05:57:07.444Z,9.95
2022-08-30T06:02:10.051Z,5.72
2022-08-30T06:07:14.939Z,9.32
2022-08-30T06:12:20.931Z,7.68
2022-08-30T06:17:23.498Z,6.05
2022-08-30T06:22:26.054Z,8.32
2022-08-30T06:27:31.240Z,5.97
2022-08-30T06:32:34.011Z,7.35
2022-08-30T06:37:36.818Z,6.57
2022-08-30T06:42:40.811Z,6.68
2022-08-30T06:47:44.972Z,7.10
2022-08-30T06:52:47.720Z,5.95
2022-08-30T06:57:52.123Z,7.65
2022-08-30T07:02:54.797Z,9.32
2022-08-30T07:07:57.649Z,14.70
2022-08-30T07:13:01.463Z,10.70
2022-08-30T07:18:21.894Z,10.60
2022-08-30T07:23:24.938Z,12.25
2022-08-30T07:28:28.893Z,11.30
2022-08-30T07:33:31.680Z,17.48
2022-08-30T07:38:35.092Z,12.88
2022-08-30T07:43:39.755Z,10.90
2022-08-30T07:48:44.279Z,11.80
2022-08-30T07:53:47.472Z,13.32
2022-08-30T07:58:52.015Z,13.40
2022-08-30T08:03:54.560Z,14.77
2022-08-30T08:09:02.134Z,14.20
2022-08-30T08:14:06.101Z,11.50
2022-08-30T08:24:12.460Z,10.82
2022-08-30T08:29:16.396Z,11.38
2022-08-30T08:39:26.047Z,13.10
2022-08-30T08:44:50.770Z,15.10
2022-08-30T08:50:00.774Z,13.45
2022-08-30T08:55:10.261Z,16.10
2022-08-30T09:00:16.260Z,8.52
2022-08-30T09:05:22.937Z,9.32
2022-08-30T09:10:47.034Z,11.32
2022-08-30T09:15:55.202Z,12.65
2022-08-30T09:21:07.720Z,8.38
2022-08-30T09:26:10.865Z,8.63
2022-08-30T09:31:21.453Z,6.70
2022-08-30T09:36:28.209Z,7.75
2022-08-30T09:41:40.609Z,13.63
2022-08-30T09:46:50.801Z,11.95
2022-08-30T09:52:00.274Z,5.70
2022-08-30T09:57:13.246Z,8.73
2022-08-30T10:02:42.621Z,9.27
2022-08-30T10:07:55.645Z,6.88
2022-08-30T10:13:06.255Z,6.00
2022-08-30T10:18:18.191Z,3.38
2022-08-30T10:23:26.777Z,5.30
2022-08-30T10:28:35.971Z,5.90
2022-08-30T10:33:49.126Z,6.22
2022-08-30T10:38:56.190Z,4.72
2022-08-30T10:44:10.182Z,7.68
2022-08-30T10:49:42.971Z,3.22
2022-08-30T10:55:11.537Z,6.32
2022-08-30T11:00:23.310Z,3.00
2022-08-30T11:05:45.878Z,2.85
2022-08-30T11:10:56.864Z,4.40
2022-08-30T11:16:03.907Z,3.40
2022-08-30T11:21:25.763Z,3.45
2022-08-30T11:27:02.461Z,5.85
2022-08-30T11:32:21.946Z,3.85
2022-08-30T11:37:39.649Z,4.40
2022-08-30T11:42:45.741Z,5.30
2022-08-30T11:47:51.004Z,4.85
2022-08-30T11:53:01.719Z,7.38
2022-08-30T11:58:16.993Z,7.53
2022-08-30T12:03:33.650Z,3.70
2022-08-30T12:08:58.034Z,4.80
2022-08-30T12:14:17.242Z,3.05
2022-08-30T12:19:22.181Z,3.70
2022-08-30T12:24:29.239Z,6.38
2022-08-30T12:29:33.005Z,5.43
2022-08-30T12:34:50.033Z,5.70
2022-08-30T12:40:06.123Z,5.10
2022-08-30T12:45:14.629Z,5.45
2022-08-30T12:50:22.434Z,3.42
2022-08-30T12:55:29.397Z,4.68
2022-08-30T13:00:35.210Z,5.00
2022-08-30T13:05:48.575Z,4.00
2022-08-30T13:11:07.971Z,5.57
2022-08-30T13:16:21.764Z,3.45
2022-08-30T13:21:30.149Z,9.63
2022-08-30T13:26:36.359Z,3.50
2022-08-30T13:31:38.991Z,7.85
2022-08-30T13:36:47.947Z,3.43
2022-08-30T13:41:54.976Z,4.22
2022-08-30T13:47:35.692Z,6.13
2022-08-30T13:52:40.209Z,4.80
2022-08-30T13:57:59.381Z,4.50
2022-08-30T14:03:03.423Z,3.92
2022-08-30T14:08:44.187Z,5.50
2022-08-30T14:13:32.890Z,3.83
2022-08-30T14:18:35.582Z,5.07
2022-08-30T14:23:40.282Z,8.38
2022-08-30T14:28:46.082Z,3.75
2022-08-30T14:33:54.188Z,6.05
2022-08-30T14:38:56.841Z,3.67
2022-08-30T14:44:01.377Z,5.68
2022-08-30T14:49:05.781Z,5.05
2022-08-30T14:54:09.307Z,4.90
2022-08-30T14:59:14.148Z,4.57
2022-08-30T15:04:17.277Z,4.95
2022-08-30T15:09:23.487Z,4.53
2022-08-30T15:14:28.685Z,4.22
2022-08-30T15:19:31.841Z,7.13
2022-08-30T15:24:34.667Z,3.33
2022-08-30T15:29:38.580Z,3.73
2022-08-30T15:34:41.282Z,4.60
2022-08-30T15:39:43.797Z,4.77
2022-08-30T15:44:50.968Z,5.95
2022-08-30T15:49:57.051Z,3.72
2022-08-30T15:55:00.065Z,4.00
2022-08-30T16:00:06.485Z,3.80
2022-08-30T16:05:09.718Z,5.57
2022-08-30T16:10:12.187Z,3.90
2022-08-30T16:15:16.672Z,4.00
2022-08-30T16:20:19.632Z,5.57
2022-08-30T16:25:22.225Z,5.80
2022-08-30T16:30:27.554Z,6.28
2022-08-30T16:35:30.013Z,4.50
2022-08-30T16:40:32.551Z,8.45
2022-08-30T16:45:38.062Z,9.10
2022-08-30T16:50:47.986Z,12.57
2022-08-30T16:56:15.707Z,5.07
2022-08-30T17:01:28.279Z,4.10
2022-08-30T17:07:13.756Z,6.70
2022-08-30T17:12:51.859Z,4.57
2022-08-30T17:17:56.785Z,4.47
2022-08-30T17:23:02.036Z,4.30
2022-08-30T17:28:06.262Z,5.93
2022-08-30T17:33:11.132Z,4.57
2022-08-30T17:38:14.160Z,8.38
2022-08-30T17:43:16.762Z,4.40
2022-08-30T17:48:20.593Z,4.20
2022-08-30T17:53:23.137Z,3.72
2022-08-30T17:58:25.745Z,3.90
2022-08-30T18:03:31.185Z,4.75
2022-08-30T18:08:36.056Z,6.50
2022-08-30T18:13:38.794Z,5.65
2022-08-30T18:18:42.861Z,5.50
2022-08-30T18:23:45.766Z,7.70
2022-08-30T18:28:48.785Z,5.72
2022-08-30T18:33:52.837Z,6.38
2022-08-30T18:44:17.052Z,7.15
2022-08-30T18:49:22.024Z,5.85
2022-08-30T18:54:24.998Z,5.80
2022-08-30T18:59:35.571Z,5.72
2022-08-30T19:04:42.779Z,6.55
2022-08-30T19:09:46.739Z,5.57
2022-08-30T19:19:54.760Z,4.88
2022-08-30T19:24:57.282Z,6.88
2022-08-30T19:30:00.320Z,7.05
2022-08-30T19:35:05.373Z,6.68
2022-08-30T19:40:11.841Z,6.53
2022-08-30T19:45:18.103Z,5.90
2022-08-30T19:50:22.920Z,5.45
2022-08-30T19:55:29.982Z,6.20
2022-08-30T20:00:34.225Z,8.43
2022-08-30T20:05:40.297Z,6.32
2022-08-30T20:15:46.801Z,5.80
2022-08-30T20:20:50.681Z,9.38
2022-08-30T20:25:55.538Z,6.38
2022-08-30T20:30:58.634Z,8.60
2022-08-30T20:36:03.328Z,5.85
2022-08-30T20:41:10.144Z,8.07
2022-08-30T20:46:15.481Z,6.20
2022-08-30T20:51:22.146Z,7.00
2022-08-30T20:56:27.732Z,6.70
2022-08-30T21:01:30.571Z,5.60
2022-08-30T21:06:37.383Z,5.80
2022-08-30T21:11:43.076Z,8.20
2022-08-30T21:16:47.407Z,6.78
2022-08-30T21:21:51.326Z,5.63
2022-08-30T21:26:55.556Z,4.63
2022-08-30T21:31:58.936Z,6.07
2022-08-30T21:37:02.727Z,3.80
2022-08-30T21:42:06.139Z,4.88
2022-08-30T21:47:08.648Z,10.30
2022-08-30T21:52:12.523Z,3.70
2022-08-30T21:57:16.867Z,3.40
2022-08-30T22:02:19.545Z,4.53
2022-08-30T22:07:23.451Z,4.88
2022-08-30T22:12:26.021Z,4.50
2022-08-30T22:17:28.596Z,4.30
2022-08-30T22:22:32.450Z,3.15
2022-08-30T22:27:35.083Z,3.22
2022-08-30T22:32:38.551Z,4.57
2022-08-30T22:37:42.579Z,4.00
2022-08-30T22:42:50.423Z,3.38
2022-08-30T22:47:53.025Z,3.40
2022-08-30T22:52:57.128Z,4.10
2022-08-30T22:57:59.847Z,5.95
2022-08-30T23:03:02.563Z,3.33
2022-08-30T23:08:07.885Z,5.85
2022-08-30T23:13:10.573Z,3.47
2022-08-30T23:18:13.255Z,4.15
2022-08-30T23:23:34.773Z,3.85
2022-08-30T23:28:54.604Z,4.15
2022-08-30T23:34:15.758Z,3.22
2022-08-30T23:39:37.248Z,5.45
2022-08-30T23:44:57.273Z,3.72
2022-08-30T23:50:17.546Z,4.35
2022-08-30T23:55:38.981Z,4.22
